Time;durP1;ratioP1;P1;durP2;ratioP2;P2;SDS_P1;SDS_P2;PMS_P1;PMS_P2;Temp;Humidity;BMP_temperature;BMP_pressure;BME280_temperature;BME280_humidity;BME280_pressure;Samples;Min_cycle;Max_cycle;Signal;HPM_P1;HPM_P2
2023/10/04 00:01:14;;;;;;;;;;;;;;;;;;5032894;28;19909;-72
2023/10/04 00:03:40;;;;;;;;;;;;;;;;;;5032405;28;19945;-71
2023/10/04 00:06:07;;;;;;;;;;;;;;;;;;5014953;28;20281;-71
2023/10/04 00:08:33;;;;;;;;;;;;;;;;;;5032618;28;20331;-72
2023/10/04 00:11:01;;;;;;;;;;;;;;;;;;5032601;28;19909;-71
2023/10/04 00:13:27;;;;;;;;;;;;;;;;;;5032070;28;19913;-72
2023/10/04 00:15:53;;;;;;;;;;;;;;;;;;5032620;28;19916;-72
2023/10/04 00:18:19;;;;;;;;;;;;;;;;;;5031415;28;19913;-72
2023/10/04 00:20:48;;;;;;;;;;;;;;;;;;5047907;28;20385;-72
2023/10/04 00:23:14;;;;;;;;;;;;;;;;;;5032267;28;19909;-72
2023/10/04 00:25:40;;;;;;;;;;;;;;;;;;5032639;28;20327;-72
2023/10/04 00:28:07;;;;;;;;;;;;;;;;;;5032794;28;19913;-72
2023/10/04 00:30:33;;;;;;;;;;;;;;;;;;5032606;28;19999;-71
2023/10/04 00:32:59;;;;;;;;;;;;;;;;;;5032372;28;19963;-71
2023/10/04 00:35:25;;;;;;;;;;;;;;;;;;5031492;28;20383;-72
2023/10/04 00:37:55;;;;;;;;;;;;;;;;;;5032297;28;19917;-72
2023/10/04 00:40:21;;;;;;;;;;;;;;;;;;5032278;28;19909;-72
2023/10/04 00:42:48;;;;;;;;;;;;;;;;;;5014682;28;20299;-70
2023/10/04 00:45:13;;;;;;;;;;;;;;;;;;5013768;28;19909;-70
2023/10/04 00:47:41;;;;;;;;;;;;;;;;;;5032190;28;19992;-70
2023/10/04 00:50:14;;;;;;;;;;;;;;;;;;5014294;28;20348;-71
2023/10/04 00:52:40;;;;;;;;;;;;;;;;;;5082352;22;19950;-76
2023/10/04 00:55:06;;;;;;;;;;;;;;;;;;5084109;28;19912;-76
2023/10/04 00:57:35;;;;;;;;;;;;;;;;;;5079202;28;19967;-77
2023/10/04 01:00:08;;;;;;;;;;;;;;;;;;5077744;28;19947;-75
2023/10/04 01:02:36;;;;;;;;;;;;;;;;;;5066465;28;19969;-75
2023/10/04 01:05:02;;;;;;;;;;;;;;;;;;5065161;28;20390;-75
2023/10/04 01:07:30;;;;;;;;;;;;;;;;;;5061234;28;19909;-75
2023/10/04 01:09:55;;;;;;;;;;;;;;;;;;5057553;28;20311;-75
2023/10/04 01:12:21;;;;;;;;;;;;;;;;;;5053112;28;19916;-74
2023/10/04 01:14:49;;;;;;;;;;;;;;;;;;5052631;28;19909;-75
2023/10/04 01:17:17;;;;;;;;;;;;;;;;;;5054168;28;19935;-74
2023/10/04 01:19:44;;;;;;;;;;;;;;;;;;5059506;28;19923;-75
2023/10/04 01:22:11;;;;;;;;;;;;;;;;;;5059167;28;19920;-75
2023/10/04 01:24:41;;;;;;;;;;;;;;;;;;5058682;28;19963;-74
2023/10/04 01:27:07;;;;;;;;;;;;;;;;;;5052581;28;19908;-73
2023/10/04 01:29:33;;;;;;;;;;;;;;;;;;5062234;28;19919;-74
2023/10/04 01:31:59;;;;;;;;;;;;;;;;;;5065458;28;20345;-74
2023/10/04 01:34:25;;;;;;;;;;;;;;;;;;5058937;28;20438;-73
2023/10/04 01:36:52;;;;;;;;;;;;;;;;;;5061250;28;19916;-74
2023/10/04 01:39:20;;;;;;;;;;;;;;;;;;5056883;28;19917;-74
2023/10/04 01:41:46;;;;;;;;;;;;;;;;;;5055169;28;19912;-73
2023/10/04 01:44:12;;;;;;;;;;;;;;;;;;5062865;28;19915;-74
2023/10/04 01:46:38;;;;;;;;;;;;;;;;;;5062584;28;20327;-75
2023/10/04 01:49:04;;;;;;;;;;;;;;;;;;5055008;28;19909;-74
2023/10/04 01:51:31;;;;;;;;;;;;;;;;;;5067276;28;19952;-74
2023/10/04 01:53:58;;;;;;;;;;;;;;;;;;5056691;28;19970;-75
2023/10/04 01:56:24;;;;;;;;;;;;;;;;;;5057623;28;19919;-76
2023/10/04 01:59:01;;;;;;;;;;;;;;;;;;5057012;28;20299;-76
2023/10/04 02:01:29;;;;;;;;;;;;;;;;;;5053460;28;19917;-75
2023/10/04 02:03:55;;;;;;;;;;;;;;;;;;5056126;28;19909;-75
2023/10/04 02:06:23;;;;;;;;;;;;;;;;;;5068961;28;20474;-75
2023/10/04 02:08:49;;;;;;;;;;;;;;;;;;5058565;28;19931;-75
2023/10/04 02:11:15;;;;;;;;;;;;;;;;;;5064588;28;20438;-75
2023/10/04 02:13:42;;;;;;;;;;;;;;;;;;5054640;28;19909;-75
2023/10/04 02:16:08;;;;;;;;;;;;;;;;;;5062086;28;19995;-74
2023/10/04 02:18:34;;;;;;;;;;;;;;;;;;5064835;28;19913;-75
2023/10/04 02:21:00;;;;;;;;;;;;;;;;;;5056818;28;19932;-74
2023/10/04 02:23:28;;;;;;;;;;;;;;;;;;5063671;28;19963;-74
2023/10/04 02:25:54;;;;;;;;;;;;;;;;;;5055258;28;20384;-74
2023/10/04 02:28:23;;;;;;;;;;;;;;;;;;5069077;28;19952;-75
2023/10/04 02:30:48;;;;;;;;;;;;;;;;;;5066646;28;19913;-73
2023/10/04 02:33:17;;;;;;;;;;;;;;;;;;5054189;28;20003;-74
2023/10/04 02:35:44;;;;;;;;;;;;;;;;;;5053086;28;19909;-75
2023/10/04 02:38:19;;;;;;;;;;;;;;;;;;5055127;28;20459;-76
2023/10/04 02:40:45;;;;;;;;;;;;;;;;;;5055892;28;19909;-77
2023/10/04 02:43:11;;;;;;;;;;;;;;;;;;5059803;28;19951;-75
2023/10/04 02:45:37;;;;;;;;;;;;;;;;;;5064311;28;20018;-75
2023/10/04 02:48:09;;;;;;;;;;;;;;;;;;5066271;28;20510;-75
2023/10/04 02:50:37;;;;;;;;;;;;;;;;;;5062675;28;20011;-74
2023/10/04 02:53:12;;;;;;;;;;;;;;;;;;5059866;28;19924;-76
2023/10/04 02:55:38;;;;;;;;;;;;;;;;;;5057892;28;20411;-74
2023/10/04 02:58:12;;;;;;;;;;;;;;;;;;5068634;28;19917;-76
2023/10/04 03:00:52;;;;;;;;;;;;;;;;;;5061283;28;19909;-75
2023/10/04 03:03:25;;;;;;;;;;;;;;;;;;5070822;28;19969;-76
2023/10/04 03:05:59;;;;;;;;;;;;;;;;;;5059593;28;19916;-77
2023/10/04 03:08:27;;;;;;;;;;;;;;;;;;5064045;28;19915;-77
2023/10/04 03:10:55;;;;;;;;;;;;;;;;;;5065551;28;19909;-77
2023/10/04 03:13:29;;;;;;;;;;;;;;;;;;5057917;28;19913;-76
2023/10/04 03:15:55;;;;;;;;;;;;;;;;;;5069409;28;19915;-76
2023/10/04 03:18:25;;;;;;;;;;;;;;;;;;5058464;28;19913;-76
2023/10/04 03:23:27;;;;;;;;;;;;;;;;;;5069190;28;19912;-74
2023/10/04 03:25:53;;;;;;;;;;;;;;;;;;5062009;28;19965;-76
2023/10/04 03:28:20;;;;;;;;;;;;;;;;;;5063790;28;19940;-75
2023/10/04 03:30:46;;;;;;;;;;;;;;;;;;5066785;28;19912;-76
2023/10/04 03:33:13;;;;;;;;;;;;;;;;;;5056202;28;19930;-76
2023/10/04 03:35:43;;;;;;;;;;;;;;;;;;5069170;28;20376;-75
2023/10/04 03:38:09;;;;;;;;;;;;;;;;;;5071182;28;19913;-76
2023/10/04 03:40:36;;;;;;;;;;;;;;;;;;5070064;28;20008;-76
2023/10/04 03:43:05;;;;;;;;;;;;;;;;;;5057565;28;19996;-76
2023/10/04 03:45:31;;;;;;;;;;;;;;;;;;5069340;28;19913;-75
2023/10/04 03:47:59;;;;;;;;;;;;;;;;;;5059401;28;19995;-74
2023/10/04 03:50:28;;;;;;;;;;;;;;;;;;5063526;28;19920;-76
2023/10/04 03:52:57;;;;;;;;;;;;;;;;;;5066311;28;19917;-76
2023/10/04 03:55:23;;;;;;;;;;;;;;;;;;5055065;28;19909;-76
2023/10/04 03:57:50;;;;;;;;;;;;;;;;;;5067852;28;19970;-74
2023/10/04 04:00:17;;;;;;;;;;;;;;;;;;5059237;28;19919;-76
2023/10/04 04:02:43;;;;;;;;;;;;;;;;;;5064128;28;19913;-75
2023/10/04 04:05:11;;;;;;;;;;;;;;;;;;5068127;28;19916;-77
2023/10/04 04:07:36;;;;;;;;;;;;;;;;;;5055871;28;19921;-78
2023/10/04 04:10:03;;;;;;;;;;;;;;;;;;5064525;28;19909;-77
2023/10/04 04:12:34;;;;;;;;;;;;;;;;;;5087008;23;19928;-77
2023/10/04 04:15:08;;;;;;;;;;;;;;;;;;5094173;28;19958;-76
2023/10/04 04:17:34;;;;;;;;;;;;;;;;;;5091879;28;19982;-76
2023/10/04 04:20:03;;;;;;;;;;;;;;;;;;5094701;28;19983;-76
2023/10/04 04:22:29;;;;;;;;;;;;;;;;;;5077468;28;19908;-77
2023/10/04 04:24:55;;;;;;;;;;;;;;;;;;5072288;28;19916;-76
2023/10/04 04:27:26;;;;;;;;;;;;;;;;;;5072485;28;19908;-75
2023/10/04 04:30:03;;;;;;;;;;;;;;;;;;5067571;28;19909;-76
2023/10/04 04:32:31;;;;;;;;;;;;;;;;;;5072381;28;20368;-75
2023/10/04 04:34:57;;;;;;;;;;;;;;;;;;5072288;28;19908;-76
2023/10/04 04:37:26;;;;;;;;;;;;;;;;;;5074515;28;20518;-76
2023/10/04 04:39:52;;;;;;;;;;;;;;;;;;5073277;28;19919;-76
2023/10/04 04:42:35;;;;;;;;;;;;;;;;;;5074718;28;19909;-76
2023/10/04 04:45:03;;;;;;;;;;;;;;;;;;5080211;28;19931;-77
2023/10/04 04:47:30;;;;;;;;;;;;;;;;;;5074484;28;19990;-77
2023/10/04 04:49:59;;;;;;;;;;;;;;;;;;5079827;28;19915;-77
2023/10/04 04:52:25;;;;;;;;;;;;;;;;;;5076892;28;19962;-77
2023/10/04 04:54:55;;;;;;;;;;;;;;;;;;5077331;28;19912;-77
2023/10/04 04:57:21;;;;;;;;;;;;;;;;;;5075832;28;20337;-75
2023/10/04 04:59:47;;;;;;;;;;;;;;;;;;5076601;28;20045;-75
2023/10/04 05:02:13;;;;;;;;;;;;;;;;;;5075424;28;19974;-76
2023/10/04 05:04:39;;;;;;;;;;;;;;;;;;5077520;28;19964;-77
2023/10/04 05:07:07;;;;;;;;;;;;;;;;;;5073841;28;19955;-75
2023/10/04 05:09:34;;;;;;;;;;;;;;;;;;5068423;28;19955;-76
2023/10/04 05:12:02;;;;;;;;;;;;;;;;;;5068259;28;19994;-75
2023/10/04 05:14:28;;;;;;;;;;;;;;;;;;5065850;28;19912;-75
2023/10/04 05:16:54;;;;;;;;;;;;;;;;;;5070433;28;19918;-75
2023/10/04 05:19:20;;;;;;;;;;;;;;;;;;5070313;28;19909;-75
2023/10/04 05:21:46;;;;;;;;;;;;;;;;;;5068308;28;19931;-75
2023/10/04 05:24:19;;;;;;;;;;;;;;;;;;5079649;28;19908;-78
2023/10/04 05:26:45;;;;;;;;;;;;;;;;;;5077191;28;20032;-76
2023/10/04 05:29:14;;;;;;;;;;;;;;;;;;5086734;28;19938;-76
2023/10/04 05:31:42;;;;;;;;;;;;;;;;;;5078729;28;19935;-76
2023/10/04 05:34:11;;;;;;;;;;;;;;;;;;5070764;28;19909;-75
2023/10/04 05:36:39;;;;;;;;;;;;;;;;;;5071066;28;19920;-76
2023/10/04 05:39:07;;;;;;;;;;;;;;;;;;5087601;28;19947;-76
2023/10/04 05:41:33;;;;;;;;;;;;;;;;;;5072505;28;19912;-76
2023/10/04 05:43:59;;;;;;;;;;;;;;;;;;5069707;28;20330;-76
2023/10/04 05:46:27;;;;;;;;;;;;;;;;;;5066255;28;19991;-75
2023/10/04 05:48:53;;;;;;;;;;;;;;;;;;5068304;28;19908;-74
2023/10/04 05:51:24;;;;;;;;;;;;;;;;;;5071372;28;20387;-75
2023/10/04 05:53:51;;;;;;;;;;;;;;;;;;5066510;28;19955;-75
2023/10/04 05:56:17;;;;;;;;;;;;;;;;;;5070380;28;19909;-75
2023/10/04 05:58:43;;;;;;;;;;;;;;;;;;5070151;28;19920;-76
2023/10/04 06:01:12;;;;;;;;;;;;;;;;;;5069898;28;19915;-76
2023/10/04 06:03:38;;;;;;;;;;;;;;;;;;5079084;28;19962;-76
2023/10/04 06:06:04;;;;;;;;;;;;;;;;;;5066507;28;19951;-75
2023/10/04 06:08:31;;;;;;;;;;;;;;;;;;5084369;28;19940;-75
2023/10/04 06:10:57;;;;;;;;;;;;;;;;;;5066081;28;20308;-75
2023/10/04 06:13:25;;;;;;;;;;;;;;;;;;5074763;28;19927;-76
2023/10/04 06:15:53;;;;;;;;;;;;;;;;;;5064708;28;19948;-75
2023/10/04 06:18:19;;;;;;;;;;;;;;;;;;5072873;28;19913;-76
2023/10/04 06:20:45;;;;;;;;;;;;;;;;;;5075267;28;19913;-76
2023/10/04 06:23:11;;;;;;;;;;;;;;;;;;5073633;28;20034;-75
2023/10/04 06:25:37;;;;;;;;;;;;;;;;;;5074006;28;19909;-75
2023/10/04 06:28:04;;;;;;;;;;;;;;;;;;5069458;28;19970;-76
2023/10/04 06:30:31;;;;;;;;;;;;;;;;;;5079526;28;19908;-75
2023/10/04 06:32:57;;;;;;;;;;;;;;;;;;5085767;28;19956;-76
2023/10/04 06:35:26;;;;;;;;;;;;;;;;;;5073367;28;19951;-75
2023/10/04 06:37:52;;;;;;;;;;;;;;;;;;5083526;28;20656;-73
2023/10/04 06:40:21;;;;;;;;;;;;;;;;;;5077285;28;19908;-75
2023/10/04 06:42:47;;;;;;;;;;;;;;;;;;5075232;28;19913;-76
2023/10/04 06:45:13;;;;;;;;;;;;;;;;;;5083530;28;20287;-74
2023/10/04 06:47:41;;;;;;;;;;;;;;;;;;5073493;28;19909;-72
2023/10/04 06:50:07;;;;;;;;;;;;;;;;;;5082556;28;19923;-73
2023/10/04 06:52:35;;;;;;;;;;;;;;;;;;5061707;28;19909;-73
2023/10/04 06:55:01;;;;;;;;;;;;;;;;;;5052377;28;19920;-73
2023/10/04 06:57:27;;;;;;;;;;;;;;;;;;5053574;28;19955;-73
2023/10/04 06:59:53;;;;;;;;;;;;;;;;;;5054231;28;20017;-73
2023/10/04 07:02:19;;;;;;;;;;;;;;;;;;5053069;28;19908;-72
2023/10/04 07:04:45;;;;;;;;;;;;;;;;;;5053086;28;20000;-73
2023/10/04 07:07:11;;;;;;;;;;;;;;;;;;5054251;28;20478;-74
2023/10/04 07:09:37;;;;;;;;;;;;;;;;;;5054319;28;19909;-72
2023/10/04 07:12:04;;;;;;;;;;;;;;;;;;5054062;28;19917;-72
2023/10/04 07:14:29;;;;;;;;;;;;;;;;;;5053760;28;20336;-73
2023/10/04 07:16:57;;;;;;;;;;;;;;;;;;5054353;28;19919;-73
2023/10/04 07:19:23;;;;;;;;;;;;;;;;;;5053302;28;20288;-72
2023/10/04 07:21:49;;;;;;;;;;;;;;;;;;5054333;28;19966;-73
2023/10/04 07:24:15;;;;;;;;;;;;;;;;;;5054306;28;19916;-73
2023/10/04 07:26:41;;;;;;;;;;;;;;;;;;5055901;28;19909;-74
2023/10/04 07:29:07;;;;;;;;;;;;;;;;;;5055409;28;19909;-74
2023/10/04 07:31:36;;;;;;;;;;;;;;;;;;5054727;28;19916;-73
2023/10/04 07:34:02;;;;;;;;;;;;;;;;;;5053354;28;19942;-73
2023/10/04 07:36:28;;;;;;;;;;;;;;;;;;5053562;28;19908;-73
2023/10/04 07:38:54;;;;;;;;;;;;;;;;;;5052538;28;20296;-73
2023/10/04 07:41:20;;;;;;;;;;;;;;;;;;5053768;28;19916;-73
2023/10/04 07:43:46;;;;;;;;;;;;;;;;;;5053255;28;19909;-73
2023/10/04 07:46:12;;;;;;;;;;;;;;;;;;5052507;28;19908;-73
2023/10/04 07:48:38;;;;;;;;;;;;;;;;;;5054344;28;19963;-73
2023/10/04 07:51:04;;;;;;;;;;;;;;;;;;5053990;28;20366;-73
2023/10/04 07:53:30;;;;;;;;;;;;;;;;;;5053280;28;19909;-72
2023/10/04 07:55:56;;;;;;;;;;;;;;;;;;5053551;28;19913;-74
2023/10/04 07:58:22;;;;;;;;;;;;;;;;;;5053404;28;19920;-73
2023/10/04 08:00:48;;;;;;;;;;;;;;;;;;5053382;28;20272;-73
2023/10/04 08:03:14;;;;;;;;;;;;;;;;;;5053053;28;19951;-71
2023/10/04 08:05:40;;;;;;;;;;;;;;;;;;5052662;28;19920;-72
2023/10/04 08:08:06;;;;;;;;;;;;;;;;;;5053123;28;19974;-73
2023/10/04 08:10:31;;;;;;;;;;;;;;;;;;5053212;28;19970;-72
2023/10/04 08:12:59;;;;;;;;;;;;;;;;;;5052835;28;19917;-72
2023/10/04 08:15:25;;;;;;;;;;;;;;;;;;5052549;28;19915;-72
2023/10/04 08:17:52;;;;;;;;;;;;;;;;;;5053173;28;20141;-72
2023/10/04 08:20:18;;;;;;;;;;;;;;;;;;5053012;28;19909;-72
2023/10/04 08:22:44;;;;;;;;;;;;;;;;;;5053021;28;19935;-73
2023/10/04 08:25:10;;;;;;;;;;;;;;;;;;5052774;28;19908;-72
2023/10/04 08:27:37;;;;;;;;;;;;;;;;;;5053152;28;19943;-72
2023/10/04 08:30:04;;;;;;;;;;;;;;;;;;5053511;28;19959;-73
2023/10/04 08:32:29;;;;;;;;;;;;;;;;;;5052910;28;19915;-73
2023/10/04 08:34:57;;;;;;;;;;;;;;;;;;5052000;28;20372;-73
2023/10/04 08:37:23;;;;;;;;;;;;;;;;;;5052750;28;19913;-73
2023/10/04 08:39:49;;;;;;;;;;;;;;;;;;5052914;28;20384;-73
2023/10/04 08:42:16;;;;;;;;;;;;;;;;;;5052888;28;19952;-73
2023/10/04 08:44:41;;;;;;;;;;;;;;;;;;5052031;28;19912;-73
2023/10/04 08:47:08;;;;;;;;;;;;;;;;;;5052350;28;19909;-73
2023/10/04 08:49:34;;;;;;;;;;;;;;;;;;5052507;28;19954;-73
2023/10/04 08:52:01;;;;;;;;;;;;;;;;;;5052593;28;19909;-73
2023/10/04 08:54:26;;;;;;;;;;;;;;;;;;5051656;28;19924;-73
2023/10/04 08:56:54;;;;;;;;;;;;;;;;;;5050772;28;20331;-73
2023/10/04 08:59:20;;;;;;;;;;;;;;;;;;5052379;28;19916;-73
2023/10/04 09:01:46;;;;;;;;;;;;;;;;;;5052437;28;19932;-72
2023/10/04 09:04:13;;;;;;;;;;;;;;;;;;5051729;28;19913;-73
2023/10/04 09:06:42;;;;;;;;;;;;;;;;;;5052308;28;19919;-72
2023/10/04 09:09:11;;;;;;;;;;;;;;;;;;5052750;28;20502;-73
2023/10/04 09:11:37;;;;;;;;;;;;;;;;;;5052132;28;20392;-73
2023/10/04 09:14:03;;;;;;;;;;;;;;;;;;5054033;28;19916;-73
2023/10/04 09:16:29;;;;;;;;;;;;;;;;;;5054687;28;19916;-73
2023/10/04 09:18:55;;;;;;;;;;;;;;;;;;5055496;28;19917;-73
2023/10/04 09:21:23;;;;;;;;;;;;;;;;;;5053566;28;19909;-74
2023/10/04 09:23:48;;;;;;;;;;;;;;;;;;5051456;28;19916;-74
2023/10/04 09:26:14;;;;;;;;;;;;;;;;;;5052134;28;19959;-74
2023/10/04 09:28:40;;;;;;;;;;;;;;;;;;5051756;28;19905;-74
2023/10/04 09:31:06;;;;;;;;;;;;;;;;;;5051716;28;19909;-74
2023/10/04 09:33:34;;;;;;;;;;;;;;;;;;5051015;28;19905;-73
2023/10/04 09:36:00;;;;;;;;;;;;;;;;;;5067120;28;19908;-73
2023/10/04 09:38:25;;;;;;;;;;;;;;;;;;5070176;28;20585;-74
2023/10/04 09:40:51;;;;;;;;;;;;;;;;;;5071598;28;19919;-73
2023/10/04 09:43:17;;;;;;;;;;;;;;;;;;5071261;28;19909;-71
2023/10/04 09:45:43;;;;;;;;;;;;;;;;;;5070793;28;20356;-71
2023/10/04 09:48:09;;;;;;;;;;;;;;;;;;5071465;28;19937;-72
2023/10/04 09:50:35;;;;;;;;;;;;;;;;;;5071388;28;19909;-73
2023/10/04 09:53:01;;;;;;;;;;;;;;;;;;5071305;28;19909;-73
2023/10/04 09:55:28;;;;;;;;;;;;;;;;;;5070718;28;19941;-73
2023/10/04 09:57:54;;;;;;;;;;;;;;;;;;5071546;28;19920;-73
2023/10/04 10:00:22;;;;;;;;;;;;;;;;;;5072104;28;19912;-73
2023/10/04 10:02:48;;;;;;;;;;;;;;;;;;5072680;28;19908;-74
2023/10/04 10:05:19;;;;;;;;;;;;;;;;;;5071048;28;19909;-73
2023/10/04 10:07:45;;;;;;;;;;;;;;;;;;5071487;28;20376;-73
2023/10/04 10:10:12;;;;;;;;;;;;;;;;;;5071034;28;19916;-73
2023/10/04 10:12:38;;;;;;;;;;;;;;;;;;5071137;28;19923;-73
2023/10/04 10:15:04;;;;;;;;;;;;;;;;;;5069238;28;19995;-73
2023/10/04 10:17:30;;;;;;;;;;;;;;;;;;5071273;28;19912;-73
2023/10/04 10:19:56;;;;;;;;;;;;;;;;;;5071490;28;20447;-74
2023/10/04 10:22:22;;;;;;;;;;;;;;;;;;5071263;28;19912;-73
2023/10/04 10:24:51;;;;;;;;;;;;;;;;;;5070914;28;19908;-73
2023/10/04 10:27:17;;;;;;;;;;;;;;;;;;5071721;28;19970;-73
2023/10/04 10:29:43;;;;;;;;;;;;;;;;;;5071563;28;19959;-75
2023/10/04 10:32:09;;;;;;;;;;;;;;;;;;5071650;28;19916;-74
2023/10/04 10:34:35;;;;;;;;;;;;;;;;;;5069810;28;20060;-75
2023/10/04 10:37:01;;;;;;;;;;;;;;;;;;5071472;28;19919;-75
2023/10/04 10:39:30;;;;;;;;;;;;;;;;;;5073558;28;19909;-76
2023/10/04 10:41:57;;;;;;;;;;;;;;;;;;5054626;28;19909;-75
2023/10/04 10:44:34;;;;;;;;;;;;;;;;;;5049570;28;19912;-75
2023/10/04 10:47:00;;;;;;;;;;;;;;;;;;5049977;28;19905;-75
2023/10/04 10:49:26;;;;;;;;;;;;;;;;;;5049794;28;19931;-76
2023/10/04 10:51:54;;;;;;;;;;;;;;;;;;5049245;28;22435;-75
2023/10/04 10:54:20;;;;;;;;;;;;;;;;;;5050439;28;19962;-75
2023/10/04 10:56:46;;;;;;;;;;;;;;;;;;5050920;28;19909;-75
2023/10/04 10:59:12;;;;;;;;;;;;;;;;;;5050364;28;19976;-75
2023/10/04 11:01:38;;;;;;;;;;;;;;;;;;5050369;28;20011;-75
2023/10/04 11:04:04;;;;;;;;;;;;;;;;;;5053279;28;20275;-75
2023/10/04 11:06:30;;;;;;;;;;;;;;;;;;5053707;28;19909;-75
2023/10/04 11:08:56;;;;;;;;;;;;;;;;;;5054661;28;20000;-75
2023/10/04 11:11:22;;;;;;;;;;;;;;;;;;5054682;28;20699;-75
2023/10/04 11:13:48;;;;;;;;;;;;;;;;;;5054432;28;19953;-75
2023/10/04 11:16:14;;;;;;;;;;;;;;;;;;5073211;28;19919;-76
2023/10/04 11:18:40;;;;;;;;;;;;;;;;;;5074865;28;19912;-75
2023/10/04 11:21:06;;;;;;;;;;;;;;;;;;5074498;28;19935;-73
2023/10/04 11:23:33;;;;;;;;;;;;;;;;;;5073535;28;19912;-73
2023/10/04 11:25:59;;;;;;;;;;;;;;;;;;5073977;28;19913;-73
2023/10/04 11:28:25;;;;;;;;;;;;;;;;;;5074504;28;19908;-74
2023/10/04 11:30:51;;;;;;;;;;;;;;;;;;5074062;28;19908;-73
2023/10/04 11:33:17;;;;;;;;;;;;;;;;;;5074077;28;19916;-74
2023/10/04 11:35:43;;;;;;;;;;;;;;;;;;5073465;28;19915;-74
2023/10/04 11:38:09;;;;;;;;;;;;;;;;;;5074167;28;19912;-73
2023/10/04 11:40:34;;;;;;;;;;;;;;;;;;5073747;28;20273;-74
2023/10/04 11:43:00;;;;;;;;;;;;;;;;;;5074309;28;19960;-73
2023/10/04 11:45:26;;;;;;;;;;;;;;;;;;5073873;28;19904;-74
2023/10/04 11:47:52;;;;;;;;;;;;;;;;;;5074567;28;20396;-74
2023/10/04 11:50:18;;;;;;;;;;;;;;;;;;5072804;28;19954;-74
2023/10/04 11:52:46;;;;;;;;;;;;;;;;;;5073585;28;19909;-73
2023/10/04 11:55:14;;;;;;;;;;;;;;;;;;5072962;28;19912;-74
2023/10/04 11:57:41;;;;;;;;;;;;;;;;;;5073543;28;19964;-74
2023/10/04 12:00:10;;;;;;;;;;;;;;;;;;5073430;28;20433;-72
2023/10/04 12:02:36;;;;;;;;;;;;;;;;;;5073457;28;19909;-72
2023/10/04 12:05:02;;;;;;;;;;;;;;;;;;5072999;28;20365;-72
2023/10/04 12:07:29;;;;;;;;;;;;;;;;;;5073055;28;19930;-72
2023/10/04 12:09:55;;;;;;;;;;;;;;;;;;5073577;28;19908;-72
2023/10/04 12:12:20;;;;;;;;;;;;;;;;;;5072879;28;20383;-72
2023/10/04 12:14:48;;;;;;;;;;;;;;;;;;5071004;28;19915;-72
2023/10/04 12:17:14;;;;;;;;;;;;;;;;;;5072744;28;19944;-72
2023/10/04 12:19:40;;;;;;;;;;;;;;;;;;5072706;28;19998;-72
2023/10/04 12:22:09;;;;;;;;;;;;;;;;;;5070264;28;19909;-72
2023/10/04 12:24:35;;;;;;;;;;;;;;;;;;5071911;28;19908;-72
2023/10/04 12:27:01;;;;;;;;;;;;;;;;;;5073494;28;19999;-72
2023/10/04 12:29:29;;;;;;;;;;;;;;;;;;5073228;28;19909;-72
2023/10/04 12:31:55;;;;;;;;;;;;;;;;;;5073130;28;19978;-73
2023/10/04 12:34:24;;;;;;;;;;;;;;;;;;5073154;28;19955;-74
2023/10/04 12:36:51;;;;;;;;;;;;;;;;;;5073653;28;20264;-72
2023/10/04 12:39:17;;;;;;;;;;;;;;;;;;5078824;28;19908;-72
2023/10/04 12:41:45;;;;;;;;;;;;;;;;;;5077101;28;19912;-71
2023/10/04 12:44:12;;;;;;;;;;;;;;;;;;5072343;28;19955;-73
2023/10/04 12:46:38;;;;;;;;;;;;;;;;;;5070482;28;20395;-72
2023/10/04 12:49:07;;;;;;;;;;;;;;;;;;5072936;28;20003;-72
2023/10/04 12:51:33;;;;;;;;;;;;;;;;;;5073187;28;20342;-72
2023/10/04 12:53:59;;;;;;;;;;;;;;;;;;5071474;28;19912;-73
2023/10/04 12:56:26;;;;;;;;;;;;;;;;;;5072395;28;19957;-73
2023/10/04 12:58:52;;;;;;;;;;;;;;;;;;5072284;28;19916;-72
2023/10/04 13:01:21;;;;;;;;;;;;;;;;;;5072160;28;19908;-73
2023/10/04 13:03:47;;;;;;;;;;;;;;;;;;5071644;28;20295;-72
2023/10/04 13:06:14;;;;;;;;;;;;;;;;;;5072280;28;19962;-72
2023/10/04 13:08:40;;;;;;;;;;;;;;;;;;5071970;28;19919;-72
2023/10/04 13:11:06;;;;;;;;;;;;;;;;;;5071936;28;19913;-73
2023/10/04 13:13:33;;;;;;;;;;;;;;;;;;5071572;28;19920;-72
2023/10/04 13:15:59;;;;;;;;;;;;;;;;;;5072696;28;20303;-72
2023/10/04 13:18:25;;;;;;;;;;;;;;;;;;5073444;28;19916;-72
2023/10/04 13:20:52;;;;;;;;;;;;;;;;;;5076647;28;19915;-71
2023/10/04 13:23:18;;;;;;;;;;;;;;;;;;5078115;28;19915;-73
2023/10/04 13:25:44;;;;;;;;;;;;;;;;;;5076704;28;19915;-72
2023/10/04 13:28:16;;;;;;;;;;;;;;;;;;5070571;28;19919;-72
2023/10/04 13:30:42;;;;;;;;;;;;;;;;;;5071375;28;19912;-72
2023/10/04 13:33:09;;;;;;;;;;;;;;;;;;5051180;28;19916;-71
2023/10/04 13:35:35;;;;;;;;;;;;;;;;;;5070149;28;19954;-71
2023/10/04 13:38:02;;;;;;;;;;;;;;;;;;5069888;28;19912;-71
2023/10/04 13:40:28;;;;;;;;;;;;;;;;;;5071569;28;19916;-72
2023/10/04 13:42:54;;;;;;;;;;;;;;;;;;5071572;28;19908;-72
2023/10/04 13:45:20;;;;;;;;;;;;;;;;;;5069608;28;19912;-72
2023/10/04 13:47:46;;;;;;;;;;;;;;;;;;5071818;28;20002;-71
2023/10/04 13:50:12;;;;;;;;;;;;;;;;;;5071325;28;20009;-71
2023/10/04 13:52:39;;;;;;;;;;;;;;;;;;5071359;28;19908;-72
2023/10/04 13:55:05;;;;;;;;;;;;;;;;;;5068135;28;19912;-73
2023/10/04 13:57:31;;;;;;;;;;;;;;;;;;5071165;28;19919;-71
2023/10/04 13:59:57;;;;;;;;;;;;;;;;;;5071592;28;19908;-72
2023/10/04 14:02:26;;;;;;;;;;;;;;;;;;5071494;28;19935;-71
2023/10/04 14:04:52;;;;;;;;;;;;;;;;;;5070780;28;19923;-73
2023/10/04 14:07:19;;;;;;;;;;;;;;;;;;5071411;28;20011;-72
2023/10/04 14:09:45;;;;;;;;;;;;;;;;;;5071613;28;20341;-72
2023/10/04 14:12:11;;;;;;;;;;;;;;;;;;5071414;28;19920;-73
2023/10/04 14:14:37;;;;;;;;;;;;;;;;;;5070678;28;19909;-73
2023/10/04 14:17:08;;;;;;;;;;;;;;;;;;5071223;28;19908;-73
2023/10/04 14:19:34;;;;;;;;;;;;;;;;;;5071551;28;19989;-72
2023/10/04 14:22:01;;;;;;;;;;;;;;;;;;5071404;28;19931;-70
2023/10/04 14:24:27;;;;;;;;;;;;;;;;;;5069302;28;19958;-73
2023/10/04 14:26:57;;;;;;;;;;;;;;;;;;5071210;28;20042;-72
2023/10/04 14:29:23;;;;;;;;;;;;;;;;;;5070200;28;20436;-73
2023/10/04 14:31:48;;;;;;;;;;;;;;;;;;5071112;28;20003;-72
2023/10/04 14:34:15;;;;;;;;;;;;;;;;;;5070318;28;19908;-72
2023/10/04 14:36:41;;;;;;;;;;;;;;;;;;5071052;28;20386;-72
2023/10/04 14:39:08;;;;;;;;;;;;;;;;;;5073763;28;20010;-72
2023/10/04 14:41:34;;;;;;;;;;;;;;;;;;5074896;28;19908;-71
2023/10/04 14:44:00;;;;;;;;;;;;;;;;;;5074186;28;19916;-71
2023/10/04 14:46:26;;;;;;;;;;;;;;;;;;5074631;28;20441;-71
2023/10/04 14:48:51;;;;;;;;;;;;;;;;;;5074692;28;19948;-71
2023/10/04 14:51:17;;;;;;;;;;;;;;;;;;5074661;28;19908;-71
2023/10/04 14:53:43;;;;;;;;;;;;;;;;;;5073695;28;20426;-72
2023/10/04 14:56:09;;;;;;;;;;;;;;;;;;5073545;28;19999;-72
2023/10/04 14:58:35;;;;;;;;;;;;;;;;;;5074597;28;19913;-72
2023/10/04 15:01:07;;;;;;;;;;;;;;;;;;5074525;28;20310;-73
2023/10/04 15:03:33;;;;;;;;;;;;;;;;;;5073662;28;20275;-72
2023/10/04 15:05:59;;;;;;;;;;;;;;;;;;5074608;28;19909;-73
2023/10/04 15:08:25;;;;;;;;;;;;;;;;;;5075191;28;19909;-73
2023/10/04 15:10:50;;;;;;;;;;;;;;;;;;5074716;28;20291;-72
2023/10/04 15:13:17;;;;;;;;;;;;;;;;;;5074886;28;19970;-73
2023/10/04 15:15:43;;;;;;;;;;;;;;;;;;5074086;28;19916;-73
2023/10/04 15:18:09;;;;;;;;;;;;;;;;;;5073815;28;19913;-72
2023/10/04 15:20:35;;;;;;;;;;;;;;;;;;5074171;28;20398;-71
2023/10/04 15:23:05;;;;;;;;;;;;;;;;;;5072626;28;19911;-70
2023/10/04 15:25:34;;;;;;;;;;;;;;;;;;5073707;28;19961;-72
2023/10/04 15:28:08;;;;;;;;;;;;;;;;;;5074282;28;19904;-73
2023/10/04 15:30:34;;;;;;;;;;;;;;;;;;5066987;28;19971;-72
2023/10/04 15:33:00;;;;;;;;;;;;;;;;;;5053414;28;19909;-71
2023/10/04 15:35:27;;;;;;;;;;;;;;;;;;5052841;28;19905;-71
2023/10/04 15:37:53;;;;;;;;;;;;;;;;;;5053709;28;20008;-71
2023/10/04 15:40:23;;;;;;;;;;;;;;;;;;5053752;28;20342;-72
2023/10/04 15:42:48;;;;;;;;;;;;;;;;;;5053512;28;19959;-72
2023/10/04 15:45:16;;;;;;;;;;;;;;;;;;5069972;28;19951;-72
2023/10/04 15:47:42;;;;;;;;;;;;;;;;;;5073656;28;20395;-72
2023/10/04 15:50:11;;;;;;;;;;;;;;;;;;5073191;28;19933;-70
2023/10/04 15:52:37;;;;;;;;;;;;;;;;;;5073586;28;19909;-72
2023/10/04 15:55:03;;;;;;;;;;;;;;;;;;5072471;28;19905;-73
2023/10/04 15:57:30;;;;;;;;;;;;;;;;;;5073226;28;20458;-73
2023/10/04 15:59:57;;;;;;;;;;;;;;;;;;5073325;28;20465;-73
2023/10/04 16:02:23;;;;;;;;;;;;;;;;;;5061326;28;19975;-73
2023/10/04 16:04:48;;;;;;;;;;;;;;;;;;5056714;28;19913;-73
2023/10/04 16:07:14;;;;;;;;;;;;;;;;;;5053217;28;19909;-71
2023/10/04 16:09:41;;;;;;;;;;;;;;;;;;5053437;28;19955;-72
2023/10/04 16:12:06;;;;;;;;;;;;;;;;;;5053196;28;19939;-72
2023/10/04 16:14:32;;;;;;;;;;;;;;;;;;5057655;28;20375;-71
2023/10/04 16:16:58;;;;;;;;;;;;;;;;;;5073006;28;19909;-72
2023/10/04 16:19:24;;;;;;;;;;;;;;;;;;5073017;28;20406;-72
2023/10/04 16:21:50;;;;;;;;;;;;;;;;;;5073069;28;20364;-72
2023/10/04 16:24:16;;;;;;;;;;;;;;;;;;5072339;28;19916;-72
2023/10/04 16:26:42;;;;;;;;;;;;;;;;;;5072804;28;19912;-70
2023/10/04 16:29:09;;;;;;;;;;;;;;;;;;5072687;28;20004;-71
2023/10/04 16:31:37;;;;;;;;;;;;;;;;;;5072823;28;19916;-72
2023/10/04 16:34:03;;;;;;;;;;;;;;;;;;5072216;28;19908;-71
2023/10/04 16:36:29;;;;;;;;;;;;;;;;;;5072828;28;19954;-71
2023/10/04 16:38:55;;;;;;;;;;;;;;;;;;5073394;28;20369;-72
2023/10/04 16:41:21;;;;;;;;;;;;;;;;;;5072608;28;19947;-71
2023/10/04 16:43:47;;;;;;;;;;;;;;;;;;5071939;28;20287;-72
2023/10/04 16:46:14;;;;;;;;;;;;;;;;;;5072504;28;19908;-71